Ana Sayfa
METAR-TAF:

METAR-TAF

Havaalanları :

Kastamonu Havalimanı

Kastamonu, Türkiye

Enlem: 41-19-01N, Boylam: 33-47-46E, yükseklik: 1073 m

Güncel hava durumu gözlemi

Rapor saat 12:50 UTC de 3 saat ve 17 dakika önce yapıldı.
Rüzgar doğu/kuzeydoğudan 4 kt
Sıcaklık 18°C
Nem 28%
Basınç 1022 hPa
Görüş mesafesi 10 km veya daha fazla
1500 m altında bulut yok ve kümülonimbus yok

METAR: LTAL 181250Z 06004KT CAVOK 18/M01 Q1022

Saat: 19:07 (16:07 UTC)

Tahmin

Rapor saat 13:40 UTC de 2 saat ve 27 dakika önce yapıldı.
Ayın 18'si saat 15 UTC'den ayın 18'si saat 24 UTC'ye kadar geçerli Tahmin
Rüzgar değişken yönden 2 kt
Görüş mesafesi 10 km veya daha fazla
1500 m altında bulut yok ve kümülonimbus yok

TAF: LTAL 181340Z 1815/1824 VRB02KT CAVOK

4.000'den fazla havaalanı için hava durumu gözlemleri ve tahminleri (METAR ve TAF raporları).

Kullanılabilir istasyonlar harita üzerinde sarı ve kırmızı noktalarla gösterilir.

İstasyonun adını görmek için fareyi noktanın üzerinde gezdirin.

Sonrasında hava gözlem ve tahminlerini görmek için tıklayın.

Haritayı değiştirmek için: yaklaştırmak için siyah artı işaretli yeşil düğmeye ve uzaklaştırmak için de eksi işaretli düğmeye hızla tıklayın; bitişik haritalar için yeşil okları kullanın.


METAR-TAF: